createdAt,value
2023-12-30T00:00:19.110Z,606.00
2023-12-30T00:01:16.865Z,606.00
2023-12-30T00:02:16.755Z,606.00
2023-12-30T00:03:16.776Z,605.00
2023-12-30T00:04:16.768Z,605.00
2023-12-30T00:05:16.747Z,605.00
2023-12-30T00:06:16.836Z,609.00
2023-12-30T00:07:16.751Z,606.00
2023-12-30T00:08:16.743Z,606.00
2023-12-30T00:09:16.729Z,607.00
2023-12-30T00:10:16.753Z,608.00
2023-12-30T00:11:16.733Z,606.00
2023-12-30T00:12:16.726Z,603.00
2023-12-30T00:13:16.743Z,607.00
2023-12-30T00:14:16.812Z,609.00
2023-12-30T00:15:16.738Z,607.00
2023-12-30T00:16:16.735Z,606.00
2023-12-30T00:17:16.726Z,605.00
2023-12-30T00:18:16.865Z,606.00
2023-12-30T00:19:16.843Z,605.00
2023-12-30T00:20:16.745Z,607.00
2023-12-30T00:21:16.735Z,609.00
2023-12-30T00:22:37.552Z,600.00
2023-12-30T00:23:43.187Z,600.00
2023-12-30T00:24:38.542Z,600.00
2023-12-30T00:25:37.526Z,600.00
2023-12-30T00:26:37.531Z,600.00
2023-12-30T00:27:37.524Z,600.00
2023-12-30T00:28:37.534Z,600.00
2023-12-30T00:29:37.531Z,601.00
2023-12-30T00:30:37.555Z,600.00
2023-12-30T00:31:37.527Z,604.00
2023-12-30T00:32:37.615Z,605.00
2023-12-30T00:33:37.828Z,601.00
2023-12-30T00:34:37.747Z,605.00
2023-12-30T00:35:37.752Z,602.00
2023-12-30T00:36:37.789Z,603.00
2023-12-30T00:37:37.843Z,601.00
2023-12-30T00:38:37.906Z,603.00
2023-12-30T00:39:37.935Z,605.00
2023-12-30T00:40:38.002Z,603.00
2023-12-30T00:41:38.030Z,607.00
2023-12-30T00:42:38.086Z,604.00
2023-12-30T00:43:38.152Z,603.00
2023-12-30T00:44:38.181Z,604.00
2023-12-30T00:45:38.225Z,601.00
2023-12-30T00:46:38.314Z,605.00
2023-12-30T00:47:38.347Z,603.00
2023-12-30T00:48:38.386Z,605.00
2023-12-30T00:49:38.442Z,607.00
2023-12-30T00:50:38.480Z,607.00
2023-12-30T00:51:38.529Z,607.00
2023-12-30T00:52:38.582Z,602.00
2023-12-30T00:53:38.623Z,606.00
2023-12-30T00:54:44.739Z,603.00
2023-12-30T00:55:39.671Z,603.00
2023-12-30T00:56:38.709Z,603.00
2023-12-30T00:57:38.680Z,603.00
2023-12-30T00:58:38.679Z,603.00
2023-12-30T00:59:38.701Z,606.00
2023-12-30T01:00:38.700Z,606.00
2023-12-30T01:01:38.780Z,606.00
2023-12-30T01:02:38.697Z,606.00
2023-12-30T01:03:38.722Z,604.00
2023-12-30T01:04:38.781Z,606.00
2023-12-30T01:05:38.728Z,602.00
2023-12-30T01:06:38.732Z,603.00
2023-12-30T01:07:38.778Z,600.00
2023-12-30T01:08:38.955Z,603.00
2023-12-30T01:09:38.903Z,601.00
2023-12-30T01:10:38.956Z,604.00
2023-12-30T01:11:38.964Z,604.00
2023-12-30T01:12:39.034Z,605.00
2023-12-30T01:13:39.100Z,605.00
2023-12-30T01:14:39.133Z,606.00
2023-12-30T01:15:39.193Z,610.00
2023-12-30T01:16:39.250Z,602.00
2023-12-30T01:17:39.441Z,605.00
2023-12-30T01:18:39.504Z,606.00
2023-12-30T01:19:39.412Z,603.00
2023-12-30T01:20:39.449Z,602.00
2023-12-30T01:21:39.513Z,601.00
2023-12-30T01:22:39.579Z,605.00
2023-12-30T01:23:39.614Z,604.00
2023-12-30T01:24:39.661Z,605.00
2023-12-30T01:25:39.790Z,607.00
2023-12-30T01:26:39.754Z,604.00
2023-12-30T01:27:39.814Z,604.00
2023-12-30T01:28:39.855Z,607.00
2023-12-30T01:29:39.913Z,602.00
2023-12-30T01:30:40.085Z,607.00
2023-12-30T01:31:40.082Z,607.00
2023-12-30T01:32:40.118Z,602.00
2023-12-30T01:33:40.258Z,604.00
2023-12-30T01:34:40.305Z,601.00
2023-12-30T01:35:40.298Z,604.00
2023-12-30T01:36:40.345Z,601.00
2023-12-30T01:37:40.438Z,607.00
2023-12-30T01:38:40.487Z,604.00
2023-12-30T01:39:40.531Z,606.00
2023-12-30T01:40:40.587Z,606.00
2023-12-30T01:41:40.664Z,607.00
2023-12-30T01:42:40.725Z,602.00
2023-12-30T01:43:40.816Z,604.00
2023-12-30T01:44:40.861Z,603.00
2023-12-30T01:45:40.903Z,606.00
2023-12-30T01:46:40.962Z,606.00
2023-12-30T01:47:41.154Z,606.00
2023-12-30T01:48:41.229Z,608.00
2023-12-30T01:49:41.222Z,610.00
2023-12-30T01:50:41.202Z,607.00
2023-12-30T01:51:41.261Z,604.00
2023-12-30T01:52:41.331Z,609.00
2023-12-30T01:53:41.419Z,606.00
2023-12-30T01:54:41.463Z,606.00
2023-12-30T01:55:41.531Z,604.00
2023-12-30T01:56:41.567Z,608.00
2023-12-30T01:57:41.636Z,607.00
2023-12-30T01:58:41.701Z,603.00
2023-12-30T01:59:41.769Z,605.00
2023-12-30T02:00:41.833Z,603.00
2023-12-30T02:01:42.069Z,604.00
2023-12-30T02:02:41.985Z,601.00
2023-12-30T02:03:42.137Z,604.00
2023-12-30T02:04:42.142Z,607.00
2023-12-30T02:05:42.197Z,608.00
2023-12-30T02:06:42.224Z,602.00
2023-12-30T02:07:42.355Z,603.00
2023-12-30T02:08:42.337Z,606.00
2023-12-30T02:09:42.405Z,604.00
2023-12-30T02:10:42.467Z,605.00
2023-12-30T02:11:42.558Z,602.00
2023-12-30T02:12:42.607Z,604.00
2023-12-30T02:13:42.704Z,603.00
2023-12-30T02:14:42.770Z,605.00
2023-12-30T02:15:42.797Z,604.00
2023-12-30T02:16:42.853Z,607.00
2023-12-30T02:17:43.048Z,606.00
2023-12-30T02:18:43.102Z,605.00
2023-12-30T02:19:43.086Z,604.00
2023-12-30T02:20:43.113Z,605.00
2023-12-30T02:21:43.179Z,609.00
2023-12-30T02:22:43.256Z,606.00
2023-12-30T02:23:43.319Z,608.00
2023-12-30T02:24:43.677Z,604.00
2023-12-30T02:25:43.496Z,605.00
2023-12-30T02:26:43.503Z,606.00
2023-12-30T02:27:43.562Z,609.00
2023-12-30T02:28:43.632Z,606.00
2023-12-30T02:29:43.708Z,607.00
2023-12-30T02:30:43.794Z,607.00
2023-12-30T02:31:43.891Z,607.00
2023-12-30T02:32:43.919Z,607.00
2023-12-30T02:33:43.980Z,603.00
2023-12-30T02:34:44.043Z,606.00
2023-12-30T02:35:44.078Z,608.00
2023-12-30T02:36:44.150Z,608.00
2023-12-30T02:37:44.202Z,607.00
2023-12-30T02:38:44.292Z,601.00
2023-12-30T02:39:44.686Z,607.00
2023-12-30T02:40:44.444Z,604.00
2023-12-30T02:41:44.495Z,605.00
2023-12-30T02:42:44.528Z,600.00
2023-12-30T02:43:44.594Z,604.00
2023-12-30T02:44:44.690Z,605.00
2023-12-30T02:45:44.800Z,606.00
2023-12-30T02:46:44.791Z,604.00
2023-12-30T02:47:44.893Z,608.00
2023-12-30T02:48:44.923Z,602.00
2023-12-30T02:49:45.036Z,605.00
2023-12-30T02:50:45.014Z,603.00
2023-12-30T02:51:45.078Z,605.00
2023-12-30T02:52:45.140Z,606.00
2023-12-30T02:53:45.216Z,606.00
2023-12-30T02:54:45.317Z,604.00
2023-12-30T02:55:45.379Z,605.00
2023-12-30T02:56:45.351Z,607.00
2023-12-30T02:57:49.134Z,606.00
2023-12-30T02:58:45.392Z,606.00
2023-12-30T02:59:45.394Z,606.00
2023-12-30T03:00:45.412Z,605.00
2023-12-30T03:01:45.459Z,604.00
2023-12-30T03:02:45.423Z,604.00
2023-12-30T03:03:45.419Z,600.00
2023-12-30T03:04:45.530Z,604.00
2023-12-30T03:05:45.410Z,607.00
2023-12-30T03:06:45.395Z,604.00
2023-12-30T03:07:45.391Z,605.00
2023-12-30T03:08:45.418Z,604.00
2023-12-30T03:09:45.402Z,607.00
2023-12-30T03:10:45.475Z,603.00
2023-12-30T03:11:45.500Z,607.00
2023-12-30T03:12:45.554Z,608.00
2023-12-30T03:13:45.665Z,604.00
2023-12-30T03:14:45.697Z,602.00
2023-12-30T03:15:45.756Z,603.00
2023-12-30T03:16:45.902Z,603.00
2023-12-30T03:17:45.933Z,607.00
2023-12-30T03:18:46.178Z,604.00
2023-12-30T03:19:46.086Z,606.00
2023-12-30T03:20:46.088Z,609.00
2023-12-30T03:21:46.169Z,604.00
2023-12-30T03:22:46.343Z,610.00
2023-12-30T03:23:46.297Z,604.00
2023-12-30T03:24:46.366Z,607.00
2023-12-30T03:25:46.425Z,607.00
2023-12-30T03:26:46.495Z,607.00
2023-12-30T03:27:46.572Z,603.00
2023-12-30T03:28:46.622Z,603.00
2023-12-30T03:29:46.751Z,605.00
2023-12-30T03:30:46.770Z,604.00
2023-12-30T03:31:46.943Z,608.00
2023-12-30T03:32:46.909Z,605.00
2023-12-30T03:33:46.989Z,605.00
2023-12-30T03:34:47.064Z,604.00
2023-12-30T03:35:47.075Z,606.00
2023-12-30T03:36:47.140Z,603.00
2023-12-30T03:37:47.216Z,604.00
2023-12-30T03:38:47.276Z,606.00
2023-12-30T03:39:47.363Z,605.00
2023-12-30T03:40:47.422Z,607.00
2023-12-30T03:41:47.467Z,607.00
2023-12-30T03:42:47.539Z,608.00
2023-12-30T03:43:47.599Z,606.00
2023-12-30T03:44:47.661Z,606.00
2023-12-30T03:45:47.711Z,608.00
2023-12-30T03:46:47.780Z,605.00
2023-12-30T03:47:47.883Z,604.00
2023-12-30T03:48:47.940Z,602.00
2023-12-30T03:49:48.192Z,605.00
2023-12-30T03:50:48.048Z,607.00
2023-12-30T03:51:48.170Z,606.00
2023-12-30T03:52:48.178Z,607.00
2023-12-30T03:53:48.240Z,605.00
2023-12-30T03:54:48.293Z,608.00
2023-12-30T03:55:49.194Z,603.00
2023-12-30T03:56:48.426Z,606.00
2023-12-30T03:57:48.542Z,605.00
2023-12-30T03:58:48.573Z,606.00
2023-12-30T03:59:48.639Z,606.00
2023-12-30T04:00:48.778Z,604.00
2023-12-30T04:01:48.743Z,604.00
2023-12-30T04:02:48.869Z,602.00
2023-12-30T04:03:48.952Z,603.00
2023-12-30T04:04:48.959Z,604.00
2023-12-30T04:05:49.009Z,605.00
2023-12-30T04:06:49.094Z,607.00
2023-12-30T04:07:49.107Z,603.00
2023-12-30T04:08:49.168Z,609.00
2023-12-30T04:09:49.266Z,605.00
2023-12-30T04:10:49.312Z,607.00
2023-12-30T04:11:49.390Z,607.00
2023-12-30T04:12:49.469Z,606.00
2023-12-30T04:13:49.586Z,607.00
2023-12-30T04:14:49.583Z,605.00
2023-12-30T04:15:49.676Z,608.00
2023-12-30T04:16:49.715Z,608.00
2023-12-30T04:17:49.796Z,602.00
2023-12-30T04:18:49.918Z,605.00
2023-12-30T04:19:49.976Z,607.00
2023-12-30T04:20:49.955Z,606.00
2023-12-30T04:21:50.054Z,605.00
2023-12-30T04:22:50.066Z,608.00
2023-12-30T04:23:50.138Z,604.00
2023-12-30T04:24:50.233Z,606.00
2023-12-30T04:25:50.275Z,609.00
2023-12-30T04:26:50.370Z,608.00
2023-12-30T04:27:50.508Z,607.00
2023-12-30T04:28:50.477Z,605.00
2023-12-30T04:29:50.540Z,608.00
2023-12-30T04:30:57.813Z,600.00
2023-12-30T04:32:05.091Z,600.00
2023-12-30T04:33:05.386Z,600.00
2023-12-30T04:34:05.144Z,600.00
2023-12-30T04:35:05.110Z,600.00
2023-12-30T04:36:05.073Z,600.00
2023-12-30T04:37:05.141Z,600.00
2023-12-30T04:38:05.132Z,605.00
2023-12-30T04:39:05.077Z,601.00
2023-12-30T04:40:05.108Z,600.00
2023-12-30T04:41:05.111Z,601.00
2023-12-30T04:42:05.081Z,600.00
2023-12-30T04:43:05.434Z,603.00
2023-12-30T04:44:05.093Z,602.00
2023-12-30T04:45:05.113Z,603.00
2023-12-30T04:46:05.116Z,604.00
2023-12-30T04:47:05.090Z,603.00
2023-12-30T04:48:05.138Z,604.00
2023-12-30T04:49:05.230Z,605.00
2023-12-30T04:50:05.113Z,600.00
2023-12-30T04:51:05.101Z,601.00
2023-12-30T04:52:05.128Z,604.00
2023-12-30T04:53:05.310Z,606.00
2023-12-30T04:54:05.099Z,604.00
2023-12-30T04:55:05.141Z,605.00
2023-12-30T04:56:05.186Z,604.00
2023-12-30T04:57:05.104Z,605.00
2023-12-30T04:58:05.165Z,602.00
2023-12-30T04:59:05.177Z,601.00
2023-12-30T05:00:05.238Z,605.00
2023-12-30T05:01:05.361Z,600.00
2023-12-30T05:02:05.410Z,607.00
2023-12-30T05:03:05.792Z,601.00
2023-12-30T05:04:05.514Z,604.00
2023-12-30T05:05:05.575Z,602.00
2023-12-30T05:06:05.619Z,606.00
2023-12-30T05:07:05.696Z,602.00
2023-12-30T05:08:06.962Z,607.00
2023-12-30T05:09:05.827Z,607.00
2023-12-30T05:10:06.030Z,604.00
2023-12-30T05:11:05.935Z,604.00
2023-12-30T05:12:06.021Z,603.00
2023-12-30T05:13:06.410Z,604.00
2023-12-30T05:14:06.205Z,606.00
2023-12-30T05:15:06.196Z,600.00
2023-12-30T05:16:06.308Z,606.00
2023-12-30T05:17:06.354Z,604.00
2023-12-30T05:18:06.447Z,603.00
2023-12-30T05:19:06.562Z,607.00
2023-12-30T05:20:06.526Z,605.00
2023-12-30T05:21:06.596Z,604.00
2023-12-30T05:22:06.693Z,607.00
2023-12-30T05:23:06.752Z,606.00
2023-12-30T05:24:06.830Z,603.00
2023-12-30T05:25:06.975Z,601.00
2023-12-30T05:26:06.924Z,604.00
2023-12-30T05:27:06.968Z,602.00
2023-12-30T05:28:07.130Z,605.00
2023-12-30T05:29:07.113Z,608.00
2023-12-30T05:30:07.213Z,605.00
2023-12-30T05:31:07.339Z,603.00
2023-12-30T05:32:07.336Z,606.00
2023-12-30T05:33:07.792Z,609.00
2023-12-30T05:34:07.467Z,602.00
2023-12-30T05:35:07.586Z,603.00
2023-12-30T05:36:07.565Z,605.00
2023-12-30T05:37:07.692Z,607.00
2023-12-30T05:38:07.688Z,607.00
2023-12-30T05:39:07.762Z,606.00
2023-12-30T05:40:08.030Z,608.00
2023-12-30T05:41:07.911Z,605.00
2023-12-30T05:42:07.965Z,605.00
2023-12-30T05:43:08.062Z,605.00
2023-12-30T05:44:08.089Z,602.00
2023-12-30T05:45:08.191Z,605.00
2023-12-30T05:46:08.287Z,603.00
2023-12-30T05:47:08.308Z,604.00
2023-12-30T05:48:08.434Z,605.00
2023-12-30T05:49:08.611Z,604.00
2023-12-30T05:50:08.517Z,605.00
2023-12-30T05:51:08.556Z,604.00
2023-12-30T05:52:08.633Z,605.00
2023-12-30T05:53:08.693Z,603.00
2023-12-30T05:54:08.752Z,607.00
2023-12-30T05:55:08.862Z,603.00
2023-12-30T05:56:08.896Z,607.00
2023-12-30T05:57:08.933Z,602.00
2023-12-30T05:58:09.030Z,603.00
2023-12-30T05:59:09.065Z,606.00
2023-12-30T06:00:09.116Z,605.00
2023-12-30T06:01:09.357Z,606.00
2023-12-30T06:02:09.268Z,607.00
2023-12-30T06:03:09.611Z,605.00
2023-12-30T06:04:09.470Z,607.00
2023-12-30T06:05:09.469Z,604.00
2023-12-30T06:06:09.585Z,607.00
2023-12-30T06:07:09.693Z,609.00
2023-12-30T06:08:09.663Z,605.00
2023-12-30T06:09:09.728Z,604.00
2023-12-30T06:10:09.856Z,602.00
2023-12-30T06:11:09.843Z,606.00
2023-12-30T06:12:09.913Z,609.00
2023-12-30T06:13:09.998Z,607.00
2023-12-30T06:14:10.041Z,605.00
2023-12-30T06:15:10.112Z,608.00
2023-12-30T06:16:10.292Z,604.00
2023-12-30T06:17:10.248Z,606.00
2023-12-30T06:18:10.454Z,607.00
2023-12-30T06:19:11.238Z,607.00
2023-12-30T06:20:10.477Z,600.00
2023-12-30T06:21:10.530Z,607.00
2023-12-30T06:22:10.666Z,603.00
2023-12-30T06:23:10.637Z,604.00
2023-12-30T06:24:10.792Z,601.00
2023-12-30T06:25:10.879Z,604.00
2023-12-30T06:26:10.844Z,603.00
2023-12-30T06:27:10.910Z,605.00
2023-12-30T06:28:11.077Z,607.00
2023-12-30T06:29:11.078Z,606.00
2023-12-30T06:30:11.098Z,606.00
2023-12-30T06:31:11.186Z,606.00
2023-12-30T06:32:11.260Z,606.00
2023-12-30T06:33:11.368Z,603.00
2023-12-30T06:34:11.342Z,601.00
2023-12-30T06:35:11.381Z,604.00
2023-12-30T06:36:11.408Z,602.00
2023-12-30T06:37:11.480Z,606.00
2023-12-30T06:38:11.506Z,605.00
2023-12-30T06:39:11.560Z,607.00
2023-12-30T06:40:11.690Z,606.00
2023-12-30T06:41:11.663Z,608.00
2023-12-30T06:42:11.705Z,606.00
2023-12-30T06:43:11.831Z,603.00
2023-12-30T06:44:11.845Z,604.00
2023-12-30T06:45:11.915Z,603.00
2023-12-30T06:46:12.009Z,605.00
2023-12-30T06:47:12.050Z,604.00
2023-12-30T06:48:12.186Z,601.00
2023-12-30T06:49:12.282Z,604.00
2023-12-30T06:50:12.225Z,604.00
2023-12-30T06:51:12.317Z,606.00
2023-12-30T06:52:12.366Z,604.00
2023-12-30T06:53:12.412Z,608.00
2023-12-30T06:54:12.480Z,606.00
2023-12-30T06:55:18.880Z,607.00
2023-12-30T06:56:13.592Z,606.00
2023-12-30T06:57:12.558Z,608.00
2023-12-30T06:58:12.635Z,607.00
2023-12-30T06:59:12.959Z,606.00
2023-12-30T07:00:12.552Z,605.00
2023-12-30T07:01:12.626Z,607.00
2023-12-30T07:02:12.562Z,605.00
2023-12-30T07:03:12.579Z,604.00
2023-12-30T07:04:12.604Z,603.00
2023-12-30T07:05:12.782Z,603.00
2023-12-30T07:06:12.713Z,607.00
2023-12-30T07:07:12.852Z,609.00
2023-12-30T07:08:12.928Z,607.00
2023-12-30T07:09:12.905Z,608.00
2023-12-30T07:10:13.058Z,608.00
2023-12-30T07:11:13.065Z,612.00
2023-12-30T07:12:13.104Z,607.00
2023-12-30T07:13:13.225Z,609.00
2023-12-30T07:14:13.233Z,607.00
2023-12-30T07:15:13.365Z,605.00
2023-12-30T07:16:13.397Z,610.00
2023-12-30T07:17:13.421Z,607.00
2023-12-30T07:18:13.830Z,611.00
2023-12-30T07:19:13.701Z,606.00
2023-12-30T07:20:13.610Z,607.00
2023-12-30T07:21:13.915Z,607.00
2023-12-30T07:22:13.783Z,606.00
2023-12-30T07:23:13.809Z,605.00
2023-12-30T07:24:13.858Z,612.00
2023-12-30T07:25:14.020Z,612.00
2023-12-30T07:26:13.982Z,603.00
2023-12-30T07:27:14.084Z,605.00
2023-12-30T07:28:14.157Z,609.00
2023-12-30T07:29:14.173Z,609.00
2023-12-30T07:30:14.276Z,609.00
2023-12-30T07:31:14.421Z,606.00
2023-12-30T07:32:14.357Z,607.00
2023-12-30T07:33:14.504Z,602.00
2023-12-30T07:34:14.640Z,603.00
2023-12-30T07:35:14.546Z,606.00
2023-12-30T07:36:14.640Z,610.00
2023-12-30T07:37:14.797Z,607.00
2023-12-30T07:38:14.736Z,603.00
2023-12-30T07:39:14.813Z,601.00
2023-12-30T07:40:14.900Z,607.00
2023-12-30T07:41:14.941Z,606.00
2023-12-30T07:42:15.013Z,606.00
2023-12-30T07:43:15.111Z,606.00
2023-12-30T07:44:15.134Z,603.00
2023-12-30T07:45:15.228Z,607.00
2023-12-30T07:46:15.327Z,606.00
2023-12-30T07:47:15.328Z,605.00
2023-12-30T07:48:15.393Z,603.00
2023-12-30T07:49:15.563Z,601.00
2023-12-30T07:50:15.525Z,601.00
2023-12-30T07:51:15.582Z,608.00
2023-12-30T07:52:15.723Z,607.00
2023-12-30T07:53:15.711Z,611.00
2023-12-30T07:54:15.779Z,602.00
2023-12-30T07:55:15.930Z,605.00
2023-12-30T07:56:15.904Z,603.00
2023-12-30T07:57:15.983Z,608.00
2023-12-30T07:58:16.066Z,609.00
2023-12-30T07:59:16.119Z,607.00
2023-12-30T08:00:16.165Z,603.00
2023-12-30T08:01:16.266Z,608.00
2023-12-30T08:02:16.275Z,606.00
2023-12-30T08:03:16.355Z,604.00
2023-12-30T08:04:16.512Z,606.00
2023-12-30T08:05:16.484Z,604.00
2023-12-30T08:06:16.494Z,608.00
2023-12-30T08:07:16.622Z,606.00
2023-12-30T08:08:16.615Z,603.00
2023-12-30T08:09:16.665Z,600.00
2023-12-30T08:10:16.722Z,604.00
2023-12-30T08:11:16.770Z,603.00
2023-12-30T08:12:16.910Z,603.00
2023-12-30T08:13:16.946Z,602.00
2023-12-30T08:14:16.942Z,606.00
2023-12-30T08:15:17.015Z,605.00
2023-12-30T08:16:17.087Z,606.00
2023-12-30T08:17:17.242Z,605.00
2023-12-30T08:18:17.313Z,602.00
2023-12-30T08:19:17.247Z,606.00
2023-12-30T08:20:17.303Z,604.00
2023-12-30T08:21:17.349Z,604.00
2023-12-30T08:22:17.447Z,602.00
2023-12-30T08:23:17.448Z,603.00
2023-12-30T08:24:17.543Z,606.00
2023-12-30T08:25:17.591Z,606.00
2023-12-30T08:26:17.608Z,604.00
2023-12-30T08:27:17.668Z,605.00
2023-12-30T08:28:17.720Z,605.00
2023-12-30T08:29:17.751Z,610.00
2023-12-30T08:30:17.873Z,610.00
2023-12-30T08:31:17.945Z,604.00
2023-12-30T08:32:17.940Z,607.00
2023-12-30T08:33:18.061Z,608.00
2023-12-30T08:34:18.180Z,606.00
2023-12-30T08:35:18.064Z,602.00
2023-12-30T08:36:18.173Z,608.00
2023-12-30T08:37:18.164Z,606.00
2023-12-30T08:38:18.182Z,609.00
2023-12-30T08:39:18.223Z,607.00
2023-12-30T08:40:18.287Z,605.00
2023-12-30T08:41:18.310Z,606.00
2023-12-30T08:42:18.390Z,609.00
2023-12-30T08:43:18.479Z,606.00
2023-12-30T08:44:18.541Z,606.00
2023-12-30T08:45:18.774Z,609.00
2023-12-30T08:46:18.634Z,605.00
2023-12-30T08:47:18.659Z,607.00
2023-12-30T08:48:18.711Z,609.00
2023-12-30T08:49:18.767Z,610.00
2023-12-30T08:50:18.752Z,605.00
2023-12-30T08:51:18.792Z,604.00
2023-12-30T08:52:18.830Z,607.00
2023-12-30T08:53:18.799Z,610.00
2023-12-30T08:54:18.839Z,607.00
2023-12-30T08:55:18.953Z,610.00
2023-12-30T08:56:18.914Z,607.00
2023-12-30T08:57:18.951Z,607.00
2023-12-30T08:58:19.047Z,606.00
2023-12-30T08:59:19.067Z,606.00
2023-12-30T09:00:19.061Z,607.00
2023-12-30T09:01:19.259Z,605.00
2023-12-30T09:02:19.128Z,608.00
2023-12-30T09:03:20.332Z,608.00
2023-12-30T09:04:19.357Z,607.00
2023-12-30T09:05:19.295Z,608.00
2023-12-30T09:06:19.287Z,609.00
2023-12-30T09:07:19.388Z,610.00
2023-12-30T09:08:19.324Z,611.00
2023-12-30T09:09:19.344Z,608.00
2023-12-30T09:10:19.431Z,605.00
2023-12-30T09:11:19.417Z,608.00
2023-12-30T09:12:19.446Z,608.00
2023-12-30T09:13:19.513Z,606.00
2023-12-30T09:14:19.491Z,610.00
2023-12-30T09:15:19.541Z,607.00
2023-12-30T09:16:19.655Z,610.00
2023-12-30T09:17:19.599Z,608.00
2023-12-30T09:18:19.711Z,607.00
2023-12-30T09:19:19.705Z,607.00
2023-12-30T09:20:19.755Z,606.00
2023-12-30T09:21:19.633Z,607.00
2023-12-30T09:22:19.639Z,609.00
2023-12-30T09:23:19.656Z,607.00
2023-12-30T09:24:19.664Z,608.00
2023-12-30T09:25:19.685Z,604.00
2023-12-30T09:26:19.652Z,609.00
2023-12-30T09:27:19.682Z,607.00
2023-12-30T09:28:19.772Z,607.00
2023-12-30T09:29:19.696Z,611.00
2023-12-30T09:30:19.792Z,610.00
2023-12-30T09:31:19.847Z,607.00
2023-12-30T09:32:19.828Z,607.00
2023-12-30T09:33:19.988Z,607.00
2023-12-30T09:34:29.946Z,607.00
2023-12-30T09:35:21.079Z,607.00
2023-12-30T09:36:19.978Z,608.00
2023-12-30T09:37:20.069Z,608.00
2023-12-30T09:38:20.333Z,608.00
2023-12-30T09:39:19.980Z,607.00
2023-12-30T09:40:20.046Z,608.00
2023-12-30T09:41:20.044Z,609.00
2023-12-30T09:42:20.041Z,614.00
2023-12-30T09:43:20.015Z,611.00
2023-12-30T09:44:20.001Z,612.00
2023-12-30T09:45:20.011Z,614.00
2023-12-30T09:46:20.038Z,610.00
2023-12-30T09:47:20.068Z,612.00
2023-12-30T09:48:20.115Z,613.00
2023-12-30T09:49:20.110Z,613.00
2023-12-30T09:50:20.069Z,615.00
2023-12-30T09:51:20.095Z,616.00
2023-12-30T09:52:20.162Z,619.00
2023-12-30T09:53:20.268Z,619.00
2023-12-30T09:54:20.692Z,623.00
2023-12-30T09:55:20.337Z,627.00
2023-12-30T09:56:20.351Z,632.00
2023-12-30T09:57:20.381Z,637.00
2023-12-30T09:58:20.460Z,636.00
2023-12-30T09:59:20.421Z,637.00
2023-12-30T10:00:20.455Z,642.00
2023-12-30T10:01:20.511Z,649.00
2023-12-30T10:02:20.474Z,663.00
2023-12-30T10:03:20.765Z,672.00
2023-12-30T10:04:20.589Z,676.00
2023-12-30T10:05:20.545Z,679.00
2023-12-30T10:06:20.554Z,675.00
2023-12-30T10:07:20.607Z,667.00
2023-12-30T10:08:20.579Z,664.00
2023-12-30T10:09:20.579Z,659.00
2023-12-30T10:10:20.621Z,660.00
2023-12-30T10:11:20.598Z,664.00
2023-12-30T10:12:20.655Z,662.00
2023-12-30T10:13:20.741Z,663.00
2023-12-30T10:14:20.791Z,663.00
2023-12-30T10:15:20.892Z,662.00
2023-12-30T10:16:20.946Z,663.00
2023-12-30T10:17:20.987Z,662.00
2023-12-30T10:18:21.178Z,661.00
2023-12-30T10:19:21.178Z,663.00
2023-12-30T10:20:21.190Z,661.00
2023-12-30T10:21:21.276Z,665.00
2023-12-30T10:22:21.356Z,664.00
2023-12-30T10:23:21.381Z,663.00
2023-12-30T10:24:21.451Z,663.00
2023-12-30T10:25:21.547Z,663.00
2023-12-30T10:26:21.587Z,660.00
2023-12-30T10:27:21.716Z,660.00
2023-12-30T10:28:21.716Z,662.00
2023-12-30T10:29:21.704Z,659.00
2023-12-30T10:30:21.729Z,657.00
2023-12-30T10:31:23.374Z,655.00
2023-12-30T10:32:21.851Z,654.00
2023-12-30T10:33:21.813Z,654.00
2023-12-30T10:34:21.864Z,654.00
2023-12-30T10:35:23.607Z,651.00
2023-12-30T10:36:21.791Z,650.00
2023-12-30T10:37:21.865Z,652.00
2023-12-30T10:38:21.901Z,653.00
2023-12-30T10:39:21.954Z,653.00
2023-12-30T10:40:21.977Z,651.00
2023-12-30T10:41:21.964Z,651.00
2023-12-30T10:42:22.008Z,653.00
2023-12-30T10:43:22.061Z,653.00
2023-12-30T10:44:22.130Z,649.00
2023-12-30T10:45:22.200Z,651.00
2023-12-30T10:46:22.283Z,652.00
2023-12-30T10:47:22.363Z,652.00
2023-12-30T10:48:22.405Z,654.00
2023-12-30T10:49:22.609Z,654.00
2023-12-30T10:50:22.653Z,654.00
2023-12-30T10:51:22.609Z,654.00
2023-12-30T10:52:22.722Z,655.00
2023-12-30T10:53:22.726Z,656.00
2023-12-30T10:54:22.820Z,651.00
2023-12-30T10:55:22.907Z,657.00
2023-12-30T10:56:22.947Z,650.00
2023-12-30T10:57:22.971Z,649.00
2023-12-30T10:58:23.132Z,651.00
2023-12-30T10:59:23.096Z,653.00
2023-12-30T11:00:23.212Z,650.00
2023-12-30T11:01:23.342Z,648.00
2023-12-30T11:02:23.278Z,649.00
2023-12-30T11:03:23.336Z,649.00
2023-12-30T11:04:23.474Z,648.00
2023-12-30T11:05:23.605Z,645.00
2023-12-30T11:06:23.636Z,637.00
2023-12-30T11:07:23.592Z,636.00
2023-12-30T11:08:23.612Z,647.00
2023-12-30T11:09:23.632Z,646.00
2023-12-30T11:10:23.791Z,650.00
2023-12-30T11:11:23.710Z,657.00
2023-12-30T11:12:23.722Z,659.00
2023-12-30T11:13:23.729Z,659.00
2023-12-30T11:14:23.728Z,655.00
2023-12-30T11:15:23.925Z,677.00
2023-12-30T11:16:23.871Z,671.00
2023-12-30T11:17:24.077Z,659.00
2023-12-30T11:18:23.974Z,665.00
2023-12-30T11:19:24.020Z,683.00
2023-12-30T11:20:24.022Z,676.00
2023-12-30T11:21:24.061Z,668.00
2023-12-30T11:22:24.268Z,663.00
2023-12-30T11:23:24.116Z,663.00
2023-12-30T11:24:24.143Z,667.00
2023-12-30T11:25:24.285Z,663.00
2023-12-30T11:26:24.165Z,673.00
2023-12-30T11:27:24.088Z,669.00
2023-12-30T11:28:24.173Z,665.00
2023-12-30T11:29:24.166Z,664.00
2023-12-30T11:30:24.185Z,664.00
2023-12-30T11:31:24.157Z,663.00
2023-12-30T11:32:24.297Z,666.00
2023-12-30T11:33:24.232Z,663.00
2023-12-30T11:34:24.229Z,660.00
2023-12-30T11:35:24.227Z,662.00
2023-12-30T11:36:24.216Z,660.00
2023-12-30T11:37:24.302Z,661.00
2023-12-30T11:38:24.249Z,661.00
2023-12-30T11:39:24.365Z,661.00
2023-12-30T11:40:24.352Z,660.00
2023-12-30T11:41:24.299Z,659.00
2023-12-30T11:42:33.860Z,660.00
2023-12-30T11:43:25.349Z,660.00
2023-12-30T11:44:24.322Z,661.00
2023-12-30T11:45:24.323Z,661.00
2023-12-30T11:46:24.359Z,662.00
2023-12-30T11:47:24.359Z,662.00
2023-12-30T11:48:24.491Z,662.00
2023-12-30T11:49:24.726Z,664.00
2023-12-30T11:50:24.340Z,661.00
2023-12-30T11:51:24.364Z,664.00
2023-12-30T11:52:24.385Z,666.00
2023-12-30T11:53:24.317Z,659.00
2023-12-30T11:54:24.326Z,656.00
2023-12-30T11:55:24.366Z,656.00
2023-12-30T11:56:24.323Z,654.00
2023-12-30T11:57:24.328Z,657.00
2023-12-30T11:58:24.468Z,665.00
2023-12-30T11:59:24.327Z,670.00
2023-12-30T12:00:24.325Z,665.00
2023-12-30T12:01:24.430Z,657.00
2023-12-30T12:02:24.335Z,666.00
2023-12-30T12:03:24.333Z,661.00
2023-12-30T12:04:24.418Z,671.00
2023-12-30T12:05:24.451Z,671.00
2023-12-30T12:06:24.510Z,662.00
2023-12-30T12:07:24.593Z,662.00
2023-12-30T12:08:24.619Z,665.00
2023-12-30T12:09:24.682Z,666.00
2023-12-30T12:10:24.796Z,662.00
2023-12-30T12:11:24.801Z,662.00
2023-12-30T12:12:24.912Z,664.00
2023-12-30T12:13:24.941Z,663.00
2023-12-30T12:14:25.149Z,660.00
2023-12-30T12:15:25.027Z,662.00
2023-12-30T12:16:25.089Z,660.00
2023-12-30T12:17:25.138Z,664.00
2023-12-30T12:18:25.197Z,660.00
2023-12-30T12:19:25.184Z,660.00
2023-12-30T12:20:25.191Z,660.00
2023-12-30T12:21:25.186Z,662.00
2023-12-30T12:22:25.237Z,658.00
2023-12-30T12:23:25.246Z,657.00
2023-12-30T12:24:25.225Z,659.00
2023-12-30T12:25:25.305Z,656.00
2023-12-30T12:26:25.278Z,660.00
2023-12-30T12:27:25.304Z,657.00
2023-12-30T12:28:25.427Z,659.00
2023-12-30T12:29:25.402Z,655.00